Date,TemperatureHighF,TemperatureAvgF,TemperatureLowF,DewpointHighF,DewpointAvgF,DewpointLowF,HumidityHigh,HumidityAvg,HumidityLow,PressureMaxIn,PressureMinIn,WindSpeedMaxMPH,WindSpeedAvgMPH,GustSpeedMaxMPH,PrecipitationSumIn
2013-4-1,78.0,66.6,52.8,54.6,51.1,46.9,89,60,37,30.08,29.94,16,4,16,0.00
2013-4-2,72.0,63.8,50.2,63.0,56.1,41.5,87,76,64,30.02,29.90,35,12,35,0.00
2013-4-3,52.0,47.0,42.9,46.7,43.6,39.6,93,88,77,30.17,29.95,31,10,31,0.57
2013-4-4,50.1,45.2,41.2,42.8,40.4,38.4,92,84,74,30.22,30.13,25,7,25,0.03
2013-4-5,52.4,44.2,41.5,45.1,40.5,38.8,92,87,77,30.27,30.20,10,4,11,0.00
2013-4-6,72.8,65.6,53.4,58.9,54.1,47.8,84,67,52,30.04,29.85,38,15,38,0.00
2013-4-7,71.9,65.9,59.5,62.4,59.3,55.3,89,80,71,29.92,29.75,31,13,32,0.00
2013-4-8,75.2,68.6,64.1,64.8,61.5,58.2,85,78,70,29.77,29.68,32,17,33,0.00
2013-4-9,82.8,75.3,67.4,67.3,65.6,62.0,89,72,56,29.73,29.62,34,15,36,0.00
2013-4-10,72.9,47.3,39.4,68.6,43.7,33.9,93,88,69,29.99,29.69,39,13,39,0.36
2013-4-11,60.2,48.0,38.6,40.4,35.4,30.2,80,63,44,29.99,29.83,24,6,25,0.00
2013-4-12,76.3,60.1,46.7,49.5,44.0,39.0,79,58,32,30.02,29.88,15,5,15,0.00
2013-4-13,77.3,65.7,53.7,52.6,48.7,44.3,73,56,37,30.02,29.77,26,8,26,0.00
2013-4-14,78.3,68.1,55.9,65.3,58.5,47.4,85,72,57,29.77,29.56,31,12,31,0.00
2013-4-15,84.5,73.7,66.8,70.0,66.2,64.2,93,79,57,29.75,29.61,33,16,33,0.00
2013-4-16,86.2,78.5,70.7,69.6,67.3,64.4,88,69,53,29.90,29.77,30,13,30,0.00
2013-4-17,84.2,76.6,72.8,70.6,69.1,67.7,89,79,61,29.88,29.61,39,18,39,0.00
2013-4-18,74.2,53.6,44.0,70.4,45.5,33.6,93,75,54,30.17,29.55,56,15,56,1.12
2013-4-19,57.4,45.5,39.9,34.2,31.1,26.3,76,59,35,30.30,30.14,33,10,33,0.00
2013-4-20,69.4,57.7,43.5,40.5,37.3,34.1,71,48,30,30.23,30.04,17,10,26,0.00
2013-4-21,69.3,59.6,47.1,49.7,46.2,38.6,82,62,46,30.23,30.09,14,7,25,0.00
2013-4-22,75.5,69.0,52.8,61.1,56.7,45.3,78,65,56,30.12,29.85,27,13,27,0.00
2013-4-23,66.8,53.8,40.7,62.0,49.5,37.2,92,86,73,30.20,29.80,36,13,36,0.00
2013-4-24,59.9,49.2,39.4,40.8,37.1,33.2,90,65,42,30.33,30.17,31,9,33,0.04
2013-4-25,71.5,60.3,47.3,47.4,41.7,35.4,67,51,31,30.36,30.14,25,8,25,0.00
2013-4-26,76.2,66.2,56.0,67.3,57.7,45.1,85,75,56,30.18,29.97,25,10,25,0.00
2013-4-27,72.5,67.3,58.0,65.3,59.6,53.9,90,77,60,30.10,29.98,28,8,28,0.00
2013-4-28,80.4,66.2,50.9,66.0,59.1,49.0,94,79,60,30.04,29.87,16,5,16,0.00
2013-4-29,83.3,72.5,60.6,66.3,61.5,57.0,92,70,46,29.91,29.78,24,9,24,0.00
2013-4-30,80.8,70.6,61.2,65.0,61.7,56.5,91,75,55,29.85,29.74,21,8,21,0.00